Time;durP1;ratioP1;P1;durP2;ratioP2;P2;SDS_P1;SDS_P2;PMS_P1;PMS_P2;Temp;Humidity;BMP_temperature;BMP_pressure;BME280_temperature;BME280_humidity;BME280_pressure;Samples;Min_cycle;Max_cycle;Signal;HPM_P1;HPM_P2
2021/01/27 00:00:44;;;;;;;4.00;1.77;;;;;;;0.28;nan;96777.91;5022979;28;20754;-70
2021/01/27 00:03:12;;;;;;;8.57;2.03;;;;;;;0.25;nan;96769.44;5012919;28;20401;-70
2021/01/27 00:05:44;;;;;;;2.00;1.40;;;;;;;0.27;nan;96778.78;5013729;28;20307;-70
2021/01/27 00:08:10;;;;;;;8.02;1.45;;;;;;;0.28;nan;96780.44;5014832;28;20295;-71
2021/01/27 00:10:38;;;;;;;2.03;1.50;;;;;;;0.27;nan;96762.56;5013692;28;20687;-70
2021/01/27 00:13:07;;;;;;;2.40;1.60;;;;;;;0.21;nan;96762.69;5014606;28;20604;-69
2021/01/27 00:15:35;;;;;;;2.47;1.20;;;;;;;0.19;nan;96749.94;5012275;28;20538;-68
2021/01/27 00:18:05;;;;;;;2.80;1.38;;;;;;;0.22;nan;96749.03;5011649;28;20188;-69
2021/01/27 00:20:32;;;;;;;3.83;1.48;;;;;;;0.25;nan;96754.91;5014714;28;20726;-69
2021/01/27 00:22:59;;;;;;;4.95;1.63;;;;;;;0.26;nan;96751.50;5014682;28;20796;-69
2021/01/27 00:25:29;;;;;;;1.10;1.00;;;;;;;0.29;nan;96741.19;5015655;28;20859;-69
2021/01/27 00:27:56;;;;;;;3.85;1.48;;;;;;;0.27;nan;96735.28;5014313;28;20262;-69
2021/01/27 00:30:25;;;;;;;2.20;1.23;;;;;;;0.25;nan;96734.44;5013676;28;20748;-69
2021/01/27 00:32:53;;;;;;;9.18;1.33;;;;;;;0.27;nan;96742.94;5014267;28;20279;-69
2021/01/27 00:35:22;;;;;;;2.20;1.15;;;;;;;0.27;nan;96740.38;5014192;28;20833;-69
2021/01/27 00:37:50;;;;;;;2.33;1.40;;;;;;;0.32;nan;96728.31;5013071;28;20581;-69
2021/01/27 00:40:17;;;;;;;6.28;1.40;;;;;;;0.30;nan;96730.06;5013898;28;20259;-69
2021/01/27 00:42:44;;;;;;;1.75;1.10;;;;;;;0.36;nan;96729.97;5013236;28;20476;-69
2021/01/27 00:45:11;;;;;;;2.67;1.35;;;;;;;0.36;nan;96727.41;5014161;28;20658;-70
2021/01/27 00:47:38;;;;;;;1.17;1.00;;;;;;;0.39;nan;96719.66;5013125;28;20610;-70
2021/01/27 00:50:06;;;;;;;3.67;1.52;;;;;;;0.42;nan;96717.03;5014020;28;20952;-69
2021/01/27 00:52:33;;;;;;;5.70;1.35;;;;;;;0.40;nan;96711.13;5014335;28;20231;-70
2021/01/27 00:55:01;;;;;;;2.67;1.60;;;;;;;0.33;nan;96719.81;5013028;28;20647;-69
2021/01/27 00:57:28;;;;;;;2.70;1.60;;;;;;;0.36;nan;96717.16;5012594;28;20211;-69
2021/01/27 00:59:55;;;;;;;2.10;1.40;;;;;;;0.42;nan;96719.59;5013580;28;20204;-69
2021/01/27 01:02:23;;;;;;;1.67;1.25;;;;;;;0.43;nan;96703.38;5013462;28;20304;-70
2021/01/27 01:04:50;;;;;;;5.55;1.60;;;;;;;0.47;nan;96704.13;5012603;28;20527;-70
2021/01/27 01:07:17;;;;;;;3.25;1.55;;;;;;;0.55;nan;96720.19;5012837;28;20287;-68
2021/01/27 01:09:44;;;;;;;8.75;1.65;;;;;;;0.54;nan;96716.75;5013189;28;20250;-69
2021/01/27 01:12:12;;;;;;;4.32;1.80;;;;;;;0.56;nan;96711.63;4992083;28;20717;-68
2021/01/27 01:14:39;;;;;;;4.45;1.75;;;;;;;0.52;nan;96707.47;4995233;28;20201;-69
2021/01/27 01:17:06;;;;;;;5.75;1.63;;;;;;;0.53;nan;96704.84;5012796;28;20678;-69
2021/01/27 01:19:33;;;;;;;2.45;1.40;;;;;;;0.55;nan;96710.78;5014148;28;20635;-68
2021/01/27 01:22:00;;;;;;;4.40;1.70;;;;;;;0.44;nan;96701.66;5012542;28;20723;-67
2021/01/27 01:24:27;;;;;;;6.88;1.48;;;;;;;0.51;nan;96709.16;5013193;28;20200;-68
2021/01/27 01:26:54;;;;;;;3.53;1.50;;;;;;;0.56;nan;96699.69;5015759;28;20246;-68
2021/01/27 01:29:22;;;;;;;2.15;1.52;;;;;;;0.46;nan;96707.59;5016475;28;20215;-70
2021/01/27 01:31:49;;;;;;;6.40;1.90;;;;;;;0.40;nan;96700.88;5017040;28;20239;-68
2021/01/27 01:34:16;;;;;;;3.80;2.60;;;;;;;0.34;nan;96687.34;5020132;28;20681;-68
2021/01/27 01:36:43;;;;;;;5.28;1.98;;;;;;;0.22;nan;96677.41;5016511;28;20761;-69
2021/01/27 01:39:10;;;;;;;5.50;1.67;;;;;;;0.39;nan;96694.06;5018306;28;20623;-70
2021/01/27 01:41:40;;;;;;;3.88;1.75;;;;;;;0.34;nan;96687.34;5017022;28;20745;-68
2021/01/27 01:44:08;;;;;;;4.90;2.70;;;;;;;0.32;nan;96681.44;5019884;28;20846;-70
2021/01/27 01:46:36;;;;;;;4.97;1.60;;;;;;;0.28;nan;96672.97;5016057;28;20221;-70
2021/01/27 01:49:05;;;;;;;1.90;1.60;;;;;;;0.29;nan;96666.13;5015271;28;20232;-71
2021/01/27 01:51:38;;;;;;;3.55;1.70;;;;;;;0.25;nan;96673.03;5016303;28;20582;-71
2021/01/27 01:54:11;;;;;;;5.90;2.28;;;;;;;0.29;nan;96669.53;5016871;28;20245;-70
2021/01/27 01:56:41;;;;;;;7.72;2.35;;;;;;;0.33;nan;96665.19;5018829;28;20586;-68
2021/01/27 01:59:11;;;;;;;6.78;2.22;;;;;;;0.29;nan;96661.88;5017555;28;20642;-68
2021/01/27 02:01:43;;;;;;;2.50;1.40;;;;;;;0.30;nan;96666.09;5017447;28;20232;-69
2021/01/27 02:04:10;;;;;;;3.55;2.00;;;;;;;0.28;nan;96652.50;5017574;28;20313;-70
2021/01/27 02:06:37;;;;;;;5.28;2.60;;;;;;;0.29;nan;96646.50;5018851;28;20546;-68
2021/01/27 02:09:05;;;;;;;4.13;1.85;;;;;;;0.24;nan;96640.63;5017706;28;20526;-69
2021/01/27 02:11:51;;;;;;;3.55;1.70;;;;;;;0.17;nan;96613.50;5016639;28;20531;-70
2021/01/27 02:14:44;;;;;;;10.48;2.72;;;;;;;0.15;nan;96632.34;5019136;28;20231;-71
2021/01/27 02:17:20;;;;;;;3.28;1.90;;;;;;;0.09;nan;96622.22;5018615;28;20622;-70
2021/01/27 02:20:20;;;;;;;8.23;2.30;;;;;;;0.09;nan;96620.50;5017385;28;20256;-69
2021/01/27 02:23:23;;;;;;;3.33;2.10;;;;;;;0.03;nan;96615.50;5016231;28;20722;-68
2021/01/27 02:26:00;;;;;;;3.83;2.17;;;;;;;0.04;nan;96619.78;5013318;28;20223;-68
2021/01/27 02:28:51;;;;;;;5.18;1.60;;;;;;;0.06;nan;96617.16;5016767;28;20538;-69
2021/01/27 02:31:26;;;;;;;2.50;1.90;;;;;;;0.02;nan;96624.06;5013742;28;20546;-69
2021/01/27 02:34:13;;;;;;;4.13;2.08;;;;;;;0.04;nan;96632.56;5016485;28;20524;-69
2021/01/27 02:36:45;;;;;;;3.05;1.73;;;;;;;0.10;nan;96627.28;5016340;28;20948;-69
2021/01/27 02:39:18;;;;;;;3.28;1.70;;;;;;;0.21;nan;96620.25;5010238;28;20243;-69
2021/01/27 02:41:53;;;;;;;4.63;1.70;;;;;;;0.18;nan;96615.22;5013005;28;20227;-67
2021/01/27 02:44:24;;;;;;;4.40;1.80;;;;;;;0.19;nan;96616.03;5012910;28;20766;-69
2021/01/27 02:46:53;;;;;;;5.00;1.88;;;;;;;0.23;nan;96618.50;5014818;28;20311;-69
2021/01/27 02:49:28;;;;;;;2.83;1.88;;;;;;;0.25;nan;96619.28;5015575;28;20524;-69
2021/01/27 02:52:00;;;;;;;3.35;1.60;;;;;;;0.26;nan;96615.03;5017159;28;20925;-69
2021/01/27 02:54:33;;;;;;;6.22;2.22;;;;;;;0.30;nan;96632.84;5015056;28;20311;-69
2021/01/27 02:57:07;;;;;;;4.50;3.00;;;;;;;0.31;nan;96619.16;5017504;28;20273;-68
2021/01/27 02:59:41;;;;;;;8.35;1.77;;;;;;;0.38;nan;96613.03;5015611;28;20227;-68
2021/01/27 03:02:13;;;;;;;3.05;1.63;;;;;;;0.42;nan;96614.66;5015445;28;20278;-68
2021/01/27 03:04:47;;;;;;;3.47;2.00;;;;;;;0.38;nan;96607.91;5015301;28;20635;-68
2021/01/27 03:07:17;;;;;;;2.58;2.03;;;;;;;0.42;nan;96603.56;5013393;28;20311;-68
2021/01/27 03:09:49;;;;;;;2.63;1.55;;;;;;;0.46;nan;96605.19;5012602;28;20204;-68
2021/01/27 03:12:17;;;;;;;3.40;2.10;;;;;;;0.51;nan;96601.66;5015091;28;20256;-67
2021/01/27 03:14:46;;;;;;;2.22;1.85;;;;;;;0.53;nan;96602.44;5012405;28;20758;-68
2021/01/27 03:17:16;;;;;;;3.00;2.00;;;;;;;0.59;nan;96607.44;5015170;28;20671;-68
2021/01/27 03:19:50;;;;;;;4.40;1.55;;;;;;;0.68;nan;96606.38;5014105;28;20540;-68
2021/01/27 03:22:27;;;;;;;7.25;1.88;;;;;;;0.71;nan;96612.28;5012684;28;20243;-68
2021/01/27 03:24:59;;;;;;;5.05;1.88;;;;;;;0.69;nan;96606.34;5014900;28;20283;-70
2021/01/27 03:27:31;;;;;;;6.10;1.55;;;;;;;0.76;nan;96595.06;5015660;28;20595;-68
2021/01/27 03:30:00;;;;;;;3.55;1.80;;;;;;;0.76;nan;96600.19;5017366;28;20581;-67
2021/01/27 03:32:37;;;;;;;2.80;1.98;;;;;;;0.81;nan;96608.59;5016940;28;20197;-67
2021/01/27 03:35:10;;;;;;;2.75;1.92;;;;;;;0.84;nan;96600.88;5014688;28;20841;-69
2021/01/27 03:37:44;;;;;;;3.38;1.23;;;;;;;0.93;nan;96605.75;5013170;28;20208;-70
2021/01/27 03:40:16;;;;;;;5.00;1.90;;;;;;;0.93;nan;96598.06;5010685;28;20684;-68
2021/01/27 03:42:50;;;;;;;3.30;2.10;;;;;;;0.92;nan;96596.38;5011018;28;20620;-68
2021/01/27 03:45:21;;;;;;;3.63;1.98;;;;;;;0.86;nan;96595.69;5013748;28;20615;-68
2021/01/27 03:48:00;;;;;;;2.60;1.70;;;;;;;0.88;nan;96599.88;5017767;28;20693;-67
2021/01/27 03:50:27;;;;;;;2.83;1.92;;;;;;;0.77;nan;96581.41;5014202;28;20228;-68
2021/01/27 03:52:58;;;;;;;1.98;1.15;;;;;;;0.54;nan;96583.66;5014588;28;20224;-68
2021/01/27 03:55:29;;;;;;;2.72;1.63;;;;;;;0.52;nan;96577.72;5013321;28;20844;-68
2021/01/27 03:58:03;;;;;;;4.72;1.85;;;;;;;0.56;nan;96571.66;5015434;28;20615;-67
2021/01/27 04:00:32;;;;;;;3.53;1.90;;;;;;;0.57;nan;96565.66;5013221;28;20228;-68
2021/01/27 04:03:01;;;;;;;4.32;2.10;;;;;;;0.46;nan;96544.59;5016517;28;20921;-69
2021/01/27 04:05:27;;;;;;;7.72;1.65;;;;;;;0.55;nan;96558.91;5013437;28;20751;-68
2021/01/27 04:07:55;;;;;;;6.65;1.55;;;;;;;0.51;nan;96559.84;5016056;28;20671;-67
2021/01/27 04:10:25;;;;;;;6.88;1.50;;;;;;;0.44;nan;96566.00;5012476;28;20299;-68
2021/01/27 04:12:52;;;;;;;3.63;1.45;;;;;;;0.44;nan;96555.78;5013979;28;20834;-69
2021/01/27 04:15:19;;;;;;;5.03;2.38;;;;;;;0.37;nan;96555.06;5015164;28;20606;-69
2021/01/27 04:17:46;;;;;;;3.67;1.90;;;;;;;0.37;nan;96547.38;5013674;28;20229;-69
2021/01/27 04:20:13;;;;;;;3.70;2.00;;;;;;;0.39;nan;96547.34;5014128;28;20247;-71
2021/01/27 04:22:40;;;;;;;2.15;1.75;;;;;;;0.38;nan;96526.03;5014113;28;20377;-71
2021/01/27 04:25:09;;;;;;;5.55;1.83;;;;;;;0.39;nan;96516.63;5012909;28;20311;-71
2021/01/27 04:27:36;;;;;;;3.80;1.83;;;;;;;0.42;nan;96517.41;5014158;28;20559;-72
2021/01/27 04:30:05;;;;;;;4.40;2.30;;;;;;;0.52;nan;96503.50;5012756;28;20287;-69
2021/01/27 04:32:32;;;;;;;5.43;2.30;;;;;;;0.58;nan;96503.34;5013387;28;20315;-67
2021/01/27 04:34:59;;;;;;;4.75;2.00;;;;;;;0.57;nan;96494.00;5013064;28;20319;-67
2021/01/27 04:37:26;;;;;;;4.82;1.90;;;;;;;0.54;nan;96486.38;5014080;28;20220;-68
2021/01/27 04:39:53;;;;;;;2.78;1.92;;;;;;;0.49;nan;96488.22;5018723;28;20196;-71
2021/01/27 04:42:27;;;;;;;6.25;1.88;;;;;;;0.49;nan;96483.09;5014511;28;20669;-69
2021/01/27 04:44:55;;;;;;;3.55;1.95;;;;;;;0.58;nan;96479.44;5013923;28;20615;-68
2021/01/27 04:47:27;;;;;;;3.30;2.08;;;;;;;0.59;nan;96484.53;5013157;28;20262;-69
2021/01/27 04:49:59;;;;;;;3.88;1.90;;;;;;;0.67;nan;96485.19;5013462;28;20484;-68
2021/01/27 04:52:48;;;;;;;4.30;2.10;;;;;;;0.64;nan;96482.72;5013320;28;20296;-69
2021/01/27 04:55:29;;;;;;;5.22;2.15;;;;;;;0.53;nan;96489.81;5011406;28;20285;-69
2021/01/27 04:58:08;;;;;;;3.17;2.33;;;;;;;0.52;nan;96489.88;5013694;28;20196;-70
2021/01/27 05:00:49;;;;;;;6.63;2.33;;;;;;;0.37;nan;96483.41;5012237;28;20715;-69
2021/01/27 05:03:43;;;;;;;8.73;3.00;;;;;;;0.27;nan;96476.84;5014587;28;20417;-69
2021/01/27 05:06:16;;;;;;;7.82;3.00;;;;;;;0.28;nan;96470.81;5017465;28;20281;-69
2021/01/27 05:08:54;;;;;;;4.70;2.80;;;;;;;0.25;nan;96473.44;5018494;28;20621;-71
2021/01/27 05:11:22;;;;;;;7.97;3.08;;;;;;;0.20;nan;96465.06;5015007;28;20323;-70
2021/01/27 05:13:52;;;;;;;21.90;3.60;;;;;;;0.20;nan;96459.94;5017511;28;20279;-71
2021/01/27 05:16:22;;;;;;;4.65;2.85;;;;;;;0.20;nan;96446.28;5016125;28;20235;-70
2021/01/27 05:18:50;;;;;;;4.85;2.97;;;;;;;0.13;nan;96435.38;5016300;28;20627;-69
2021/01/27 05:21:23;;;;;;;6.63;3.28;;;;;;;0.16;nan;96439.59;5016441;28;20254;-68
2021/01/27 05:23:50;;;;;;;6.75;3.17;;;;;;;0.15;nan;96441.28;5016723;28;20603;-69
2021/01/27 05:26:20;;;;;;;4.15;3.08;;;;;;;0.22;nan;96447.94;5017908;28;20247;-69
2021/01/27 05:28:57;;;;;;;7.97;2.90;;;;;;;0.30;nan;96445.22;5014220;28;20591;-69
2021/01/27 05:31:56;;;;;;;3.60;2.10;;;;;;;0.39;nan;96440.69;5017772;28;20228;-69
2021/01/27 05:34:28;;;;;;;6.72;2.30;;;;;;;0.44;nan;96433.75;5016719;28;20200;-70
2021/01/27 05:36:55;;;;;;;7.65;2.53;;;;;;;0.44;nan;96438.84;5016605;28;20313;-69
2021/01/27 05:39:27;;;;;;;6.70;2.40;;;;;;;0.46;nan;96441.38;5018629;28;20189;-69
2021/01/27 05:42:20;;;;;;;3.15;2.35;;;;;;;0.51;nan;96431.84;5016601;28;20308;-71
2021/01/27 05:44:50;;;;;;;4.00;2.00;;;;;;;0.52;nan;96431.00;5017135;28;20557;-70
2021/01/27 05:47:39;;;;;;;3.40;1.70;;;;;;;0.49;nan;96420.81;5017005;28;20496;-69
2021/01/27 05:50:21;;;;;;;6.88;2.70;;;;;;;0.46;nan;96418.34;5016377;28;20224;-68
2021/01/27 05:52:48;;;;;;;3.47;1.80;;;;;;;0.48;nan;96424.25;5013199;28;20284;-68
2021/01/27 05:55:15;;;;;;;4.32;1.65;;;;;;;0.46;nan;96437.09;5016767;28;20224;-69
2021/01/27 05:57:42;;;;;;;5.32;1.83;;;;;;;0.46;nan;96428.59;5017641;28;20702;-68
2021/01/27 06:00:22;;;;;;;3.90;2.20;;;;;;;0.49;nan;96426.78;5016005;28;20621;-68
2021/01/27 06:02:50;;;;;;;3.85;1.75;;;;;;;0.49;nan;96437.03;5013589;28;20303;-69
2021/01/27 06:05:20;;;;;;;2.92;2.10;;;;;;;0.50;nan;96433.59;5016275;28;20594;-69
2021/01/27 06:07:47;;;;;;;6.30;1.88;;;;;;;0.49;nan;96423.38;5012997;28;20723;-68
2021/01/27 06:10:31;;;;;;;2.88;1.90;;;;;;;0.47;nan;96423.41;5015576;28;20224;-69
2021/01/27 06:13:19;;;;;;;5.28;2.15;;;;;;;0.49;nan;96420.81;5013555;28;20233;-69
2021/01/27 06:15:47;;;;;;;4.80;1.60;;;;;;;0.45;nan;96426.91;5014545;28;20257;-68
2021/01/27 06:18:29;;;;;;;5.20;2.13;;;;;;;0.46;nan;96424.28;5015736;28;20222;-70
2021/01/27 06:21:23;;;;;;;2.53;1.67;;;;;;;0.48;nan;96424.25;5014440;28;20239;-68
2021/01/27 06:24:08;;;;;;;3.80;1.55;;;;;;;0.47;nan;96423.41;5018190;28;20234;-67
2021/01/27 06:26:56;;;;;;;3.60;1.95;;;;;;;0.47;nan;96423.41;5018406;28;20228;-68
2021/01/27 06:29:38;;;;;;;3.53;2.05;;;;;;;0.48;nan;96422.56;4968715;28;20591;-70
2021/01/27 06:32:21;;;;;;;5.25;1.95;;;;;;;0.45;nan;96430.28;5015719;28;20224;-68
2021/01/27 06:35:02;;;;;;;4.10;2.28;;;;;;;0.53;nan;96436.06;5012830;28;20634;-68
2021/01/27 06:38:01;;;;;;;8.32;3.78;;;;;;;0.51;nan;96440.38;5014921;28;20258;-68
2021/01/27 06:40:50;;;;;;;9.02;4.05;;;;;;;0.43;nan;96421.81;4981414;28;20266;-68
2021/01/27 06:43:58;;;;;;;11.93;3.45;;;;;;;0.52;nan;96416.47;5015022;28;20244;-68
2021/01/27 06:46:46;;;;;;;33.65;14.88;;;;;;;0.53;nan;96413.00;5015036;28;20252;-70
2021/01/27 06:49:45;;;;;;;6.30;2.70;;;;;;;0.65;nan;96407.59;5014293;28;20220;-68
2021/01/27 06:52:30;;;;;;;5.97;2.70;;;;;;;0.78;nan;96414.06;5010096;28;20275;-69
2021/01/27 06:55:08;;;;;;;3.60;2.20;;;;;;;0.88;nan;96407.78;5014796;28;20497;-70
2021/01/27 06:57:54;;;;;;;3.30;2.22;;;;;;;0.72;nan;96388.63;5017200;28;20623;-71
2021/01/27 07:00:42;;;;;;;3.92;2.25;;;;;;;0.81;nan;96408.84;5010160;28;20303;-69
2021/01/27 07:03:40;;;;;;;4.05;1.95;;;;;;;0.77;nan;96409.81;5015575;28;20315;-69
2021/01/27 07:06:31;;;;;;;2.70;1.80;;;;;;;0.80;nan;96422.53;5010759;28;20252;-69
2021/01/27 07:09:37;;;;;;;3.47;1.88;;;;;;;0.67;nan;96426.28;5014411;28;20797;-68
2021/01/27 07:12:17;;;;;;;2.35;1.35;;;;;;;0.65;nan;96427.22;5012974;28;20315;-68
2021/01/27 07:15:02;;;;;;;3.65;1.33;;;;;;;0.62;nan;96420.47;5013145;28;20527;-68
2021/01/27 07:18:00;;;;;;;3.22;1.20;;;;;;;0.65;nan;96433.19;5015204;28;20287;-68
2021/01/27 07:20:31;;;;;;;3.15;1.30;;;;;;;0.55;nan;96434.31;5013841;28;20592;-68
2021/01/27 07:23:05;;;;;;;1.55;0.85;;;;;;;0.50;nan;96433.59;5015465;28;20311;-68
2021/01/27 07:25:48;;;;;;;12.13;1.60;;;;;;;0.47;nan;96448.19;5016647;28;20267;-68
2021/01/27 07:28:21;;;;;;;8.32;2.10;;;;;;;0.34;nan;96457.88;5012292;28;20647;-68
2021/01/27 07:30:58;;;;;;;1.70;0.90;;;;;;;0.30;nan;96455.44;5013378;28;20722;-69
2021/01/27 07:33:34;;;;;;;3.50;0.90;;;;;;;0.22;nan;96457.34;5015845;28;20722;-71
2021/01/27 07:36:11;;;;;;;2.65;0.70;;;;;;;0.18;nan;96446.34;5014970;28;20314;-67
2021/01/27 07:38:41;;;;;;;1.75;1.08;;;;;;;0.14;nan;96447.28;5019494;28;20800;-68
2021/01/27 07:41:14;;;;;;;21.90;9.05;;;;;;;0.11;nan;96449.94;5014283;28;20248;-68
2021/01/27 07:43:49;;;;;;;10.15;4.47;;;;;;;0.12;nan;96454.19;5014786;28;20280;-68
2021/01/27 07:46:22;;;;;;;2.83;1.50;;;;;;;0.13;nan;96447.31;5010794;28;20258;-68
2021/01/27 07:48:59;;;;;;;2.65;1.58;;;;;;;0.10;nan;96448.22;5013448;28;20603;-68
2021/01/27 07:51:29;;;;;;;1.35;1.25;;;;;;;0.15;nan;96445.59;5010773;28;20938;-69
2021/01/27 07:54:04;;;;;;;2.58;1.33;;;;;;;0.12;nan;96436.28;5014971;28;20246;-71
2021/01/27 07:56:35;;;;;;;7.43;1.23;;;;;;;0.19;nan;96442.91;5014521;28;20728;-68
2021/01/27 07:59:10;;;;;;;1.65;1.20;;;;;;;0.17;nan;96449.78;5013697;28;20675;-70
2021/01/27 08:01:43;;;;;;;8.20;3.15;;;;;;;0.19;nan;96448.03;5012554;28;20315;-71
2021/01/27 08:04:24;;;;;;;5.55;4.55;;;;;;;0.26;nan;96448.72;5013833;28;20546;-70
2021/01/27 08:06:54;;;;;;;10.23;8.63;;;;;;;0.30;nan;96455.44;5012341;28;20939;-70
2021/01/27 08:09:31;;;;;;;7.95;5.55;;;;;;;0.31;nan;96460.50;5014169;28;20359;-71
2021/01/27 08:12:14;;;;;;;3.22;1.42;;;;;;;0.34;nan;96462.16;5012419;28;20307;-70
2021/01/27 08:15:01;;;;;;;5.03;1.50;;;;;;;0.32;nan;96456.25;5013294;28;20716;-70
2021/01/27 08:18:03;;;;;;;2.03;1.30;;;;;;;0.32;nan;96469.03;5013610;28;20221;-68
2021/01/27 08:20:32;;;;;;;2.97;1.20;;;;;;;0.31;nan;96457.13;5012841;28;20281;-68
2021/01/27 08:23:01;;;;;;;2.50;1.33;;;;;;;0.36;nan;96466.38;5014468;28;20836;-69
2021/01/27 08:25:51;;;;;;;5.05;2.03;;;;;;;0.29;nan;96475.06;5013411;28;20335;-71
2021/01/27 08:28:41;;;;;;;5.53;1.50;;;;;;;0.37;nan;96467.22;5014714;28;20304;-68
2021/01/27 08:31:19;;;;;;;5.93;1.95;;;;;;;0.18;nan;96451.47;5012785;28;20326;-69
2021/01/27 08:33:57;;;;;;;4.75;2.47;;;;;;;0.19;nan;96453.16;5011904;28;20243;-68
2021/01/27 08:37:02;;;;;;;5.80;1.52;;;;;;;0.18;nan;96450.63;5011286;28;20220;-70
2021/01/27 08:39:32;;;;;;;2.40;1.90;;;;;;;0.19;nan;96445.47;5011644;28;20215;-70
2021/01/27 08:42:02;;;;;;;6.97;1.58;;;;;;;0.21;nan;96447.97;5013698;28;20289;-69
2021/01/27 08:44:34;;;;;;;2.90;1.85;;;;;;;0.24;nan;96441.06;5014502;28;20623;-69
2021/01/27 08:47:17;;;;;;;2.17;1.65;;;;;;;0.28;nan;96437.56;5013011;28;20255;-68
2021/01/27 08:49:52;;;;;;;4.05;2.30;;;;;;;0.31;nan;96442.59;5010803;28;20246;-70
2021/01/27 08:52:37;;;;;;;1.85;1.70;;;;;;;0.34;nan;96439.97;5010380;28;20596;-69
2021/01/27 08:55:58;;;;;;;1.75;1.00;;;;;;;0.28;nan;96439.28;5012203;28;20208;-69
2021/01/27 08:58:33;;;;;;;4.95;1.65;;;;;;;0.27;nan;96435.88;5003339;28;20221;-68
2021/01/27 09:01:07;;;;;;;1.70;1.02;;;;;;;0.21;nan;96441.16;5014533;28;20654;-69
2021/01/27 09:03:59;;;;;;;2.20;1.10;;;;;;;0.24;nan;96435.13;5013297;28;20658;-68
2021/01/27 09:06:44;;;;;;;2.38;0.98;;;;;;;0.23;nan;96436.84;5011476;28;20282;-69
2021/01/27 09:09:22;;;;;;;1.90;1.20;;;;;;;0.28;nan;96435.00;5013347;28;20197;-69
2021/01/27 09:11:56;;;;;;;1.67;1.00;;;;;;;0.21;nan;96433.47;5010884;28;20328;-69
2021/01/27 09:14:23;;;;;;;9.05;1.10;;;;;;;0.22;nan;96429.22;5014932;28;20548;-68
2021/01/27 09:16:52;;;;;;;6.15;2.50;;;;;;;0.16;nan;96432.75;5013560;28;20705;-69
2021/01/27 09:19:21;;;;;;;1.60;1.40;;;;;;;0.25;nan;96429.94;5012939;28;20264;-69
2021/01/27 09:22:02;;;;;;;1.95;1.35;;;;;;;0.17;nan;96420.81;5009979;28;20260;-68
2021/01/27 09:24:35;;;;;;;2.67;1.67;;;;;;;0.03;nan;96412.63;5014634;28;20690;-69
2021/01/27 09:27:14;;;;;;;4.47;1.60;;;;;;;0.04;nan;96411.75;5015506;28;20710;-68
2021/01/27 09:29:42;;;;;;;3.15;1.95;;;;;;;0.04;nan;96407.47;5011516;28;20855;-72
2021/01/27 09:32:14;;;;;;;2.47;2.05;;;;;;;0.01;nan;96404.16;5013830;28;20261;-70
2021/01/27 09:34:42;;;;;;;3.35;1.83;;;;;;;-0.02;nan;96406.78;5013225;28;20572;-69
2021/01/27 09:37:15;;;;;;;5.03;2.05;;;;;;;-0.10;nan;96400.19;5012808;28;20243;-68
2021/01/27 09:39:49;;;;;;;2.13;1.33;;;;;;;-0.23;nan;96396.22;5012271;28;20204;-69
2021/01/27 09:42:20;;;;;;;3.92;2.17;;;;;;;-0.18;nan;96384.16;5010905;28;20639;-67
2021/01/27 09:44:53;;;;;;;5.07;2.97;;;;;;;-0.17;nan;96345.78;5012907;28;20199;-69
2021/01/27 09:47:21;;;;;;;9.90;3.35;;;;;;;-0.17;nan;96385.88;5014019;28;20302;-69
2021/01/27 09:49:52;;;;;;;8.02;3.03;;;;;;;;;;5017120;28;20239;-68
2021/01/27 09:52:20;;;;;;;6.25;2.90;;;;;;;-0.12;nan;96319.22;5018167;28;20683;-69
2021/01/27 09:54:50;;;;;;;6.93;3.35;;;;;;;-0.14;nan;96371.28;5015645;28;20697;-69
2021/01/27 09:57:20;;;;;;;2.50;1.33;;;;;;;-0.14;nan;96370.44;5012568;28;20733;-69
2021/01/27 09:59:54;;;;;;;5.50;3.08;;;;;;;-0.08;nan;96398.41;5013524;28;20283;-69
2021/01/27 10:02:27;;;;;;;4.35;2.78;;;;;;;;;;5012359;28;20215;-69
2021/01/27 10:04:54;;;;;;;4.43;2.30;;;;;;;;;;5016143;28;20209;-69
2021/01/27 10:07:22;;;;;;;4.55;1.73;;;;;;;;;;5015384;28;20651;-69
2021/01/27 10:09:53;;;;;;;4.85;2.00;;;;;;;-0.07;nan;96291.00;5014831;28;20678;-69
2021/01/27 10:12:24;;;;;;;5.75;2.75;;;;;;;;;;5014770;28;20359;-70
2021/01/27 10:15:03;;;;;;;8.85;3.08;;;;;;;0.11;nan;96341.66;5014722;28;20199;-70
2021/01/27 10:17:32;;;;;;;3.97;2.20;;;;;;;0.10;nan;96345.91;5015321;28;20683;-69
2021/01/27 10:20:24;;;;;;;5.05;2.00;;;;;;;0.05;nan;96349.47;5016135;28;20548;-69
2021/01/27 10:22:57;;;;;;;5.10;2.25;;;;;;;-0.02;nan;96330.91;5016044;28;20702;-69
2021/01/27 10:25:29;;;;;;;8.07;2.55;;;;;;;-0.06;nan;96348.94;5015809;28;20677;-69
2021/01/27 10:28:19;;;;;;;6.93;2.60;;;;;;;0.04;nan;96330.75;5016611;28;20588;-70
2021/01/27 10:30:51;;;;;;;3.58;2.70;;;;;;;0.06;nan;96339.22;5013621;28;20216;-69
2021/01/27 10:33:45;;;;;;;2.15;1.67;;;;;;;0.06;nan;96317.91;5013432;28;20613;-69
2021/01/27 10:36:43;;;;;;;6.22;2.40;;;;;;;-0.09;nan;96354.09;5016471;28;20680;-70
2021/01/27 10:39:11;;;;;;;4.28;2.80;;;;;;;;;;5012494;28;20234;-69
2021/01/27 10:41:38;;;;;;;4.93;2.38;;;;;;;0.06;nan;96502.91;5014501;28;20302;-69
2021/01/27 10:44:22;;;;;;;9.30;3.78;;;;;;;0.05;nan;96342.66;5017652;28;20209;-71
2021/01/27 10:46:53;;;;;;;2.38;2.03;;;;;;;0.05;nan;96281.28;5016430;28;20633;-69
2021/01/27 10:49:20;;;;;;;4.07;2.20;;;;;;;0.13;nan;96310.03;5015748;28;20204;-68
2021/01/27 10:51:47;;;;;;;3.28;2.20;;;;;;;0.19;nan;96361.06;5012432;28;20247;-69
2021/01/27 10:54:20;;;;;;;8.23;2.72;;;;;;;0.27;nan;96359.13;5015319;28;20223;-69
2021/01/27 10:56:51;;;;;;;3.97;2.42;;;;;;;0.41;nan;96356.19;5012994;28;20679;-71
2021/01/27 10:59:19;;;;;;;7.10;2.42;;;;;;;0.36;nan;96347.78;5014347;28;20601;-71
2021/01/27 11:01:45;;;;;;;2.95;2.50;;;;;;;0.42;nan;96348.50;5014096;28;20614;-70
2021/01/27 11:04:13;;;;;;;5.22;2.03;;;;;;;0.38;nan;96316.16;5012819;28;20662;-71
2021/01/27 11:06:47;;;;;;;3.03;2.33;;;;;;;0.45;nan;96342.44;5014432;28;20654;-71
2021/01/27 11:09:14;;;;;;;6.60;2.22;;;;;;;0.49;nan;96344.03;5011756;28;20775;-71
2021/01/27 11:11:41;;;;;;;9.43;4.88;;;;;;;0.54;nan;96260.28;5013871;28;20238;-72
2021/01/27 11:14:08;;;;;;;2.65;2.30;;;;;;;0.62;nan;96304.41;5016071;28;20773;-70
2021/01/27 11:16:35;;;;;;;3.70;2.10;;;;;;;0.51;nan;96337.13;5015738;28;20326;-71
2021/01/27 11:19:03;;;;;;;3.53;1.85;;;;;;;0.41;nan;96295.63;5016034;28;20523;-71
2021/01/27 11:21:30;;;;;;;5.97;3.30;;;;;;;0.58;nan;96328.41;5014312;28;20309;-70
2021/01/27 11:23:57;;;;;;;5.78;2.22;;;;;;;0.69;nan;96327.25;5017306;28;20208;-71
2021/01/27 11:26:25;;;;;;;5.47;2.70;;;;;;;0.72;nan;96342.53;5014163;28;20224;-71
2021/01/27 11:28:52;;;;;;;3.53;1.95;;;;;;;;;;5019760;28;20681;-71
2021/01/27 11:31:19;;;;;;;3.40;1.80;;;;;;;0.55;nan;96329.38;5014725;28;20313;-70
2021/01/27 11:33:46;;;;;;;7.93;2.05;;;;;;;0.46;nan;96324.47;5015917;28;20795;-71
2021/01/27 11:36:17;;;;;;;2.25;1.83;;;;;;;21.40;100.00;-17611.75;5011080;28;20652;-71
2021/01/27 11:38:45;;;;;;;4.93;2.00;;;;;;;;;;5014381;28;20203;-70
2021/01/27 11:41:19;;;;;;;5.43;2.90;;;;;;;0.38;nan;96311.03;5014563;28;20228;-71
2021/01/27 11:43:46;;;;;;;7.10;2.25;;;;;;;0.50;nan;96259.53;5014181;28;20235;-71
2021/01/27 11:46:20;;;;;;;3.15;2.20;;;;;;;0.57;nan;96311.38;5010717;28;20618;-70
2021/01/27 11:48:47;;;;;;;3.17;2.13;;;;;;;0.58;nan;96272.94;5012281;28;20230;-72
2021/01/27 11:51:15;;;;;;;4.78;2.70;;;;;;;0.66;nan;96306.84;5015621;28;20594;-71
2021/01/27 11:53:42;;;;;;;3.30;2.10;;;;;;;;;;5013776;28;20203;-70
2021/01/27 11:56:11;;;;;;;4.10;2.90;;;;;;;0.65;nan;96314.56;5016335;28;20755;-74
2021/01/27 11:58:38;;;;;;;3.45;2.47;;;;;;;;;;5014382;28;20627;-72
2021/01/27 12:01:05;;;;;;;3.30;2.22;;;;;;;0.53;nan;96279.91;5012491;28;20216;-71
2021/01/27 12:03:32;;;;;;;6.35;2.30;;;;;;;;;;5013716;28;20299;-71
2021/01/27 12:05:59;;;;;;;4.63;2.17;;;;;;;;;;5013042;28;20228;-70
2021/01/27 12:08:26;;;;;;;2.55;1.65;;;;;;;;;;5012962;28;20196;-71
2021/01/27 12:10:53;;;;;;;4.35;2.10;;;;;;;0.45;nan;96302.31;5012665;28;20851;-71
2021/01/27 12:13:21;;;;;;;4.55;2.85;;;;;;;0.49;nan;96286.00;5013603;28;20224;-71
2021/01/27 12:15:50;;;;;;;4.70;2.45;;;;;;;0.52;nan;96283.34;5012654;28;20216;-70
2021/01/27 12:18:17;;;;;;;5.47;1.95;;;;;;;0.60;nan;96255.81;5014706;28;20523;-71
2021/01/27 12:20:46;;;;;;;11.85;2.17;;;;;;;0.69;nan;96255.56;5012753;28;20850;-71
2021/01/27 12:23:13;;;;;;;5.82;3.75;;;;;;;0.62;nan;96248.94;5009979;28;20295;-71
2021/01/27 12:25:41;;;;;;;33.72;14.10;;;;;;;;;;5013497;28;20311;-71
2021/01/27 12:28:07;;;;;;;5.55;3.13;;;;;;;;;;5014308;28;20208;-71
2021/01/27 12:30:35;;;;;;;8.15;4.20;;;;;;;;;;5012571;28;20635;-71
2021/01/27 12:33:02;;;;;;;4.13;2.55;;;;;;;0.67;nan;96272.66;5013864;28;20524;-71
2021/01/27 12:35:31;;;;;;;7.63;3.05;;;;;;;;;;5012417;28;20436;-71
2021/01/27 12:38:00;;;;;;;15.68;3.08;;;;;;;0.83;nan;96273.06;5015729;28;21052;-71